createdAt,value
2023-02-08T00:01:48.894Z,28.83
2023-02-08T00:04:15.525Z,27.92
2023-02-08T00:06:42.193Z,32.10
2023-02-08T00:09:09.110Z,32.22
2023-02-08T00:11:35.783Z,25.25
2023-02-08T00:14:02.468Z,28.88
2023-02-08T00:16:29.140Z,24.15
2023-02-08T00:18:56.226Z,31.30
2023-02-08T00:21:22.897Z,29.85
2023-02-08T00:23:49.657Z,28.58
2023-02-08T00:26:16.526Z,32.42
2023-02-08T00:28:43.183Z,31.20
2023-02-08T00:31:09.880Z,30.67
2023-02-08T00:33:36.648Z,27.23
2023-02-08T00:36:05.941Z,31.13
2023-02-08T00:38:35.292Z,29.27
2023-02-08T00:41:01.968Z,27.75
2023-02-08T00:43:28.639Z,26.13
2023-02-08T00:45:56.203Z,29.02
2023-02-08T00:48:22.933Z,29.05
2023-02-08T00:50:58.805Z,29.30
2023-02-08T00:53:25.645Z,28.33
2023-02-08T00:55:53.246Z,27.48
2023-02-08T00:58:19.867Z,29.73
2023-02-08T01:00:46.565Z,37.08
2023-02-08T01:03:13.270Z,29.85
2023-02-08T01:05:39.925Z,28.85
2023-02-08T01:08:06.560Z,33.78
2023-02-08T01:10:33.532Z,34.40
2023-02-08T01:13:01.735Z,30.25
2023-02-08T01:15:28.420Z,28.35
2023-02-08T01:17:55.705Z,23.52
2023-02-08T01:20:25.015Z,31.42
2023-02-08T01:22:51.636Z,33.38
2023-02-08T01:25:18.298Z,30.33
2023-02-08T01:27:44.977Z,30.05
2023-02-08T01:30:12.235Z,30.92
2023-02-08T01:32:38.856Z,31.65
2023-02-08T01:35:05.909Z,27.80
2023-02-08T01:37:32.548Z,32.67
2023-02-08T01:39:59.185Z,25.10
2023-02-08T01:42:25.818Z,30.80
2023-02-08T01:45:20.917Z,26.90
2023-02-08T01:48:05.180Z,32.20
2023-02-08T01:53:00.451Z,28.80
2023-02-08T01:55:32.508Z,28.42
2023-02-08T01:58:01.484Z,28.38
2023-02-08T02:00:28.412Z,29.75
2023-02-08T02:02:55.767Z,28.10
2023-02-08T02:05:23.727Z,38.70
2023-02-08T02:07:50.974Z,33.35
2023-02-08T02:10:32.347Z,34.08
2023-02-08T02:13:14.744Z,30.98
2023-02-08T02:15:42.494Z,29.48
2023-02-08T02:18:09.184Z,34.70
2023-02-08T02:20:42.390Z,29.77
2023-02-08T02:23:36.947Z,29.98
2023-02-08T02:26:31.438Z,35.67
2023-02-08T02:31:43.243Z,33.20
2023-02-08T02:34:10.635Z,32.38
2023-02-08T02:36:55.844Z,33.10
2023-02-08T02:39:22.418Z,28.58
2023-02-08T02:42:10.598Z,31.13
2023-02-08T02:45:06.082Z,34.33
2023-02-08T02:48:05.810Z,33.10
2023-02-08T02:50:44.599Z,31.75
2023-02-08T02:53:32.211Z,32.25
2023-02-08T02:56:06.325Z,31.70
2023-02-08T02:58:33.191Z,32.38
2023-02-08T03:00:59.972Z,32.33
2023-02-08T03:03:28.158Z,28.98
2023-02-08T03:05:58.544Z,28.65
2023-02-08T03:09:14.431Z,29.15
2023-02-08T03:11:42.008Z,27.27
2023-02-08T03:14:35.316Z,29.15
2023-02-08T03:17:19.935Z,29.35
2023-02-08T03:19:57.370Z,36.90
2023-02-08T03:22:28.752Z,34.72
2023-02-08T03:25:03.064Z,29.13
2023-02-08T03:27:36.099Z,29.52
2023-02-08T03:30:27.386Z,26.37
2023-02-08T03:33:01.478Z,30.45
2023-02-08T03:35:33.312Z,33.83
2023-02-08T03:38:07.154Z,32.97
2023-02-08T03:40:44.587Z,35.00
2023-02-08T03:43:35.906Z,28.73
2023-02-08T03:46:08.215Z,34.70
2023-02-08T03:48:35.186Z,33.60
2023-02-08T03:51:01.914Z,32.42
2023-02-08T03:53:28.545Z,29.67
2023-02-08T03:56:02.288Z,32.60
2023-02-08T03:58:34.649Z,37.53
2023-02-08T04:01:07.733Z,41.67
2023-02-08T04:03:34.479Z,40.72
2023-02-08T04:06:01.155Z,34.33
2023-02-08T04:08:27.896Z,30.48
2023-02-08T04:10:54.563Z,33.05
2023-02-08T04:13:21.240Z,30.50
2023-02-08T04:15:47.952Z,28.33
2023-02-08T04:18:14.685Z,31.20
2023-02-08T04:20:41.513Z,38.78
2023-02-08T04:23:08.264Z,30.00
2023-02-08T04:25:34.878Z,30.65
2023-02-08T04:28:01.561Z,27.35
2023-02-08T04:30:28.505Z,32.50
2023-02-08T04:32:55.242Z,36.78
2023-02-08T04:35:21.915Z,33.70
2023-02-08T04:37:48.539Z,33.17
2023-02-08T04:40:15.214Z,29.05
2023-02-08T04:42:41.868Z,34.22
2023-02-08T04:45:09.214Z,34.60
2023-02-08T04:47:35.833Z,31.67
2023-02-08T04:50:02.459Z,32.08
2023-02-08T04:52:29.173Z,34.88
2023-02-08T04:54:55.761Z,33.05
2023-02-08T04:57:22.382Z,32.88
2023-02-08T04:59:49.078Z,36.88
2023-02-08T05:02:15.766Z,33.65
2023-02-08T05:04:42.489Z,37.88
2023-02-08T05:07:09.245Z,49.35
2023-02-08T05:09:35.869Z,52.08
2023-02-08T05:12:02.611Z,41.00
2023-02-08T05:14:29.285Z,35.10
2023-02-08T05:16:55.952Z,31.70
2023-02-08T05:19:22.585Z,31.05
2023-02-08T05:21:49.851Z,36.15
2023-02-08T05:24:17.020Z,33.45
2023-02-08T05:26:43.670Z,41.35
2023-02-08T05:29:10.747Z,38.45
2023-02-08T05:31:37.594Z,34.15
2023-02-08T05:34:04.384Z,39.30
2023-02-08T05:36:31.082Z,37.60
2023-02-08T05:38:57.749Z,39.28
2023-02-08T05:41:24.396Z,36.97
2023-02-08T05:43:51.068Z,34.65
2023-02-08T05:46:17.796Z,35.83
2023-02-08T05:48:44.475Z,44.90
2023-02-08T05:51:11.121Z,37.70
2023-02-08T05:53:40.337Z,35.53
2023-02-08T05:56:07.205Z,36.40
2023-02-08T05:58:34.133Z,36.70
2023-02-08T06:01:00.782Z,37.33
2023-02-08T06:03:27.518Z,37.55
2023-02-08T06:05:54.313Z,40.53
2023-02-08T06:08:20.987Z,41.90
2023-02-08T06:10:48.847Z,52.28
2023-02-08T06:13:15.972Z,39.95
2023-02-08T06:15:42.740Z,38.38
2023-02-08T06:18:09.375Z,32.75
2023-02-08T06:20:36.013Z,38.10
2023-02-08T06:23:02.974Z,41.95
2023-02-08T06:25:29.659Z,50.70
2023-02-08T06:27:57.476Z,42.88
2023-02-08T06:30:25.403Z,42.13
2023-02-08T06:32:52.411Z,40.92
2023-02-08T06:35:19.111Z,36.40
2023-02-08T06:37:45.754Z,43.83
2023-02-08T06:40:12.405Z,42.90
2023-02-08T06:42:39.393Z,73.85
2023-02-08T06:45:09.958Z,71.68
2023-02-08T06:47:37.574Z,103.18
2023-02-08T06:50:04.593Z,93.38
2023-02-08T06:52:34.508Z,71.47
2023-02-08T06:55:01.141Z,65.00
2023-02-08T06:57:27.777Z,66.53
2023-02-08T06:59:54.415Z,51.30
2023-02-08T07:02:24.249Z,49.83
2023-02-08T07:04:53.964Z,45.20
2023-02-08T07:07:20.618Z,45.60
2023-02-08T07:09:47.546Z,43.42
2023-02-08T07:12:14.221Z,46.65
2023-02-08T07:14:42.096Z,46.38
2023-02-08T07:17:08.931Z,42.25
2023-02-08T07:19:35.559Z,47.30
2023-02-08T07:22:08.094Z,40.40
2023-02-08T07:24:39.138Z,45.33
2023-02-08T07:27:06.468Z,39.92
2023-02-08T07:29:33.623Z,41.45
2023-02-08T07:32:00.915Z,37.70
2023-02-08T07:34:29.283Z,41.03
2023-02-08T07:36:55.931Z,42.38
2023-02-08T07:39:22.599Z,44.95
2023-02-08T07:41:49.388Z,36.00
2023-02-08T07:44:16.088Z,38.35
2023-02-08T07:46:42.787Z,37.95
2023-02-08T07:49:10.152Z,36.70
2023-02-08T07:51:36.806Z,37.05
2023-02-08T07:54:03.656Z,35.08
2023-02-08T07:56:30.315Z,38.17
2023-02-08T07:58:57.040Z,45.20
2023-02-08T08:01:23.910Z,40.90
2023-02-08T08:03:51.216Z,43.28
2023-02-08T08:06:19.239Z,48.05
2023-02-08T08:08:47.511Z,51.63
2023-02-08T08:11:18.101Z,41.83
2023-02-08T08:13:44.751Z,38.00
2023-02-08T08:16:11.524Z,44.03
2023-02-08T08:18:38.217Z,30.13
2023-02-08T08:21:05.117Z,28.02
2023-02-08T08:23:33.290Z,27.80
2023-02-08T08:26:00.823Z,25.05
2023-02-08T08:28:27.760Z,27.10
2023-02-08T08:30:54.634Z,28.15
2023-02-08T08:33:21.412Z,26.98
2023-02-08T08:35:48.062Z,22.73
2023-02-08T08:38:14.817Z,24.90
2023-02-08T08:40:41.759Z,18.40
2023-02-08T08:43:08.610Z,29.10
2023-02-08T08:45:36.250Z,49.63
2023-02-08T08:48:06.056Z,31.10
2023-02-08T08:50:33.001Z,23.48
2023-02-08T08:52:59.674Z,24.63
2023-02-08T08:55:27.857Z,23.38
2023-02-08T08:57:54.884Z,24.23
2023-02-08T09:00:21.606Z,30.10
2023-02-08T09:02:48.371Z,39.17
2023-02-08T09:05:15.104Z,27.00
2023-02-08T09:07:42.964Z,27.83
2023-02-08T09:10:09.661Z,29.95
2023-02-08T09:12:36.492Z,21.90
2023-02-08T09:15:03.453Z,25.58
2023-02-08T09:17:30.096Z,26.48
2023-02-08T09:19:56.736Z,26.70
2023-02-08T09:22:23.354Z,29.40
2023-02-08T09:24:50.039Z,27.52
2023-02-08T09:27:18.868Z,29.60
2023-02-08T09:29:45.821Z,27.20
2023-02-08T09:32:12.840Z,27.45
2023-02-08T09:34:39.598Z,34.85
2023-02-08T09:37:07.010Z,29.98
2023-02-08T09:39:34.762Z,35.70
2023-02-08T09:42:14.946Z,26.27
2023-02-08T09:44:53.975Z,27.85
2023-02-08T09:47:37.063Z,29.02
2023-02-08T09:50:23.432Z,27.55
2023-02-08T09:53:02.660Z,22.80
2023-02-08T09:55:35.995Z,27.50
2023-02-08T09:58:12.905Z,28.33
2023-02-08T10:00:43.361Z,30.55
2023-02-08T10:03:37.989Z,27.25
2023-02-08T10:06:08.978Z,27.90
2023-02-08T10:08:35.977Z,25.20
2023-02-08T10:11:28.043Z,29.50
2023-02-08T10:14:06.958Z,36.13
2023-02-08T10:16:55.860Z,26.27
2023-02-08T10:19:48.663Z,27.05
2023-02-08T10:22:30.275Z,25.85
2023-02-08T10:25:22.152Z,33.95
2023-02-08T10:28:16.661Z,29.25
2023-02-08T10:30:53.040Z,26.80
2023-02-08T10:33:50.394Z,28.90
2023-02-08T10:36:21.341Z,26.48
2023-02-08T10:38:49.918Z,35.15
2023-02-08T10:41:20.380Z,28.17
2023-02-08T10:43:51.968Z,28.63
2023-02-08T10:46:30.139Z,37.92
2023-02-08T10:49:03.536Z,30.85
2023-02-08T10:51:30.912Z,26.17
2023-02-08T10:53:57.844Z,35.03
2023-02-08T10:56:36.243Z,27.95
2023-02-08T10:59:15.970Z,28.20
2023-02-08T11:01:42.859Z,28.90
2023-02-08T11:04:11.270Z,30.08
2023-02-08T11:06:38.615Z,30.80
2023-02-08T11:09:06.401Z,35.40
2023-02-08T11:11:37.890Z,28.00
2023-02-08T11:14:17.782Z,33.22
2023-02-08T11:16:51.923Z,32.85
2023-02-08T11:21:50.040Z,35.38
2023-02-08T11:24:41.455Z,30.27
2023-02-08T11:27:15.992Z,31.30
2023-02-08T11:29:43.752Z,33.45
2023-02-08T11:32:18.567Z,31.55
2023-02-08T11:34:45.586Z,35.55
2023-02-08T11:37:18.010Z,29.48
2023-02-08T11:39:49.759Z,30.95
2023-02-08T11:42:21.163Z,29.52
2023-02-08T11:44:49.098Z,30.60
2023-02-08T11:47:20.533Z,33.58
2023-02-08T11:49:55.868Z,32.97
2023-02-08T11:52:36.593Z,26.92
2023-02-08T11:55:18.487Z,30.13
2023-02-08T11:57:57.987Z,26.60
2023-02-08T12:00:26.739Z,26.23
2023-02-08T12:02:59.150Z,26.00
2023-02-08T12:05:43.736Z,38.63
2023-02-08T12:08:35.743Z,34.97
2023-02-08T12:11:11.029Z,45.15
2023-02-08T12:13:56.061Z,33.17
2023-02-08T12:16:34.214Z,27.27
2023-02-08T12:19:24.437Z,33.40
2023-02-08T12:21:57.244Z,71.05
2023-02-08T12:24:56.600Z,35.45
2023-02-08T12:27:39.859Z,29.13
2023-02-08T12:30:11.409Z,28.73
2023-02-08T12:32:50.474Z,33.58
2023-02-08T12:35:39.055Z,27.90
2023-02-08T12:39:25.377Z,27.17
2023-02-08T12:42:11.439Z,26.73
2023-02-08T12:45:09.806Z,27.90
2023-02-08T12:48:07.844Z,24.67
2023-02-08T12:50:52.050Z,27.92
2023-02-08T12:53:25.831Z,25.40
2023-02-08T12:55:52.538Z,22.10
2023-02-08T12:58:30.218Z,22.73
2023-02-08T13:01:00.998Z,20.95
2023-02-08T13:03:34.303Z,20.80
2023-02-08T13:06:02.832Z,27.67
2023-02-08T13:09:03.062Z,22.08
2023-02-08T13:11:40.049Z,22.90
2023-02-08T13:14:12.078Z,20.50
2023-02-08T13:16:42.734Z,27.23
2023-02-08T13:19:59.012Z,26.65
2023-02-08T13:22:26.715Z,22.17
2023-02-08T13:25:06.376Z,22.95
2023-02-08T13:27:33.987Z,20.15
2023-02-08T13:30:00.756Z,20.42
2023-02-08T13:32:35.173Z,18.77
2023-02-08T13:35:06.186Z,18.58
2023-02-08T13:37:34.176Z,14.68
2023-02-08T13:40:06.909Z,18.35
2023-02-08T13:42:42.790Z,13.75
2023-02-08T13:45:10.659Z,15.55
2023-02-08T13:47:43.629Z,13.35
2023-02-08T13:50:48.663Z,15.80
2023-02-08T13:55:55.458Z,17.65
2023-02-08T13:58:36.702Z,16.15
2023-02-08T14:01:14.791Z,23.17
2023-02-08T14:03:41.437Z,17.85
2023-02-08T14:06:18.771Z,19.60
2023-02-08T14:08:54.403Z,18.10
2023-02-08T14:11:37.072Z,16.35
2023-02-08T14:14:23.812Z,21.60
2023-02-08T14:17:19.813Z,18.27
2023-02-08T14:19:47.847Z,19.42
2023-02-08T14:22:17.772Z,20.00
2023-02-08T14:24:49.579Z,19.70
2023-02-08T14:27:33.491Z,18.25
2023-02-08T14:30:09.870Z,18.23
2023-02-08T14:32:39.359Z,17.30
2023-02-08T14:35:18.159Z,15.57
2023-02-08T14:37:44.894Z,17.27
2023-02-08T14:40:25.101Z,16.80
2023-02-08T14:42:59.918Z,21.50
2023-02-08T14:45:30.749Z,18.15
2023-02-08T14:48:17.807Z,19.75
2023-02-08T14:51:06.837Z,22.58
2023-02-08T14:53:44.499Z,19.15
2023-02-08T14:56:31.623Z,21.35
2023-02-08T14:59:03.351Z,19.00
2023-02-08T15:01:47.041Z,17.55
2023-02-08T15:04:14.366Z,16.10
2023-02-08T15:07:00.799Z,17.00
2023-02-08T15:09:29.251Z,17.77
2023-02-08T15:12:00.158Z,13.40
2023-02-08T15:14:26.954Z,12.98
2023-02-08T15:16:55.687Z,11.52
2023-02-08T15:19:25.637Z,14.00
2023-02-08T15:21:52.373Z,13.32
2023-02-08T15:24:23.612Z,12.18
2023-02-08T15:26:52.624Z,12.82
2023-02-08T15:29:30.110Z,11.50
2023-02-08T15:31:59.584Z,15.80
2023-02-08T15:34:26.220Z,13.35
2023-02-08T15:36:53.847Z,16.52
2023-02-08T15:39:29.500Z,14.10
2023-02-08T15:41:58.522Z,14.27
2023-02-08T15:44:29.331Z,13.68
2023-02-08T15:46:58.062Z,15.93
2023-02-08T15:49:40.392Z,15.50
2023-02-08T15:52:07.322Z,14.65
2023-02-08T15:54:33.932Z,12.85
2023-02-08T15:57:03.296Z,8.77
2023-02-08T15:59:32.844Z,8.10
2023-02-08T16:02:04.761Z,11.73
2023-02-08T16:04:31.362Z,12.50
2023-02-08T16:06:59.677Z,9.45
2023-02-08T16:09:28.274Z,13.88
2023-02-08T16:11:59.418Z,12.13
2023-02-08T16:14:29.379Z,11.85
2023-02-08T16:16:57.584Z,10.25
2023-02-08T16:19:31.811Z,14.07
2023-02-08T16:24:40.314Z,12.57
2023-02-08T16:27:24.638Z,13.00
2023-02-08T16:29:51.314Z,19.48
2023-02-08T16:32:28.203Z,20.42
2023-02-08T16:34:54.851Z,25.48
2023-02-08T16:37:27.800Z,19.65
2023-02-08T16:39:58.695Z,11.27
2023-02-08T16:42:28.502Z,13.60
2023-02-08T16:45:08.324Z,11.98
2023-02-08T16:47:53.817Z,12.93
2023-02-08T16:50:27.542Z,14.73
2023-02-08T16:53:01.928Z,11.57
2023-02-08T16:57:57.781Z,13.25
2023-02-08T17:00:34.619Z,14.50
2023-02-08T17:03:01.396Z,15.90
2023-02-08T17:05:35.388Z,17.05
2023-02-08T17:08:02.053Z,18.83
2023-02-08T17:10:30.536Z,16.35
2023-02-08T17:13:13.448Z,16.05
2023-02-08T17:15:46.112Z,13.93
2023-02-08T17:18:12.996Z,15.60
2023-02-08T17:20:39.684Z,22.05
2023-02-08T17:23:06.463Z,16.75
2023-02-08T17:25:33.395Z,17.40
2023-02-08T17:28:05.532Z,16.15
2023-02-08T17:30:34.237Z,22.13
2023-02-08T17:33:00.957Z,18.38
2023-02-08T17:35:28.469Z,23.75
2023-02-08T17:37:55.749Z,20.33
2023-02-08T17:40:24.698Z,20.15
2023-02-08T17:42:54.384Z,28.75
2023-02-08T17:45:21.307Z,30.10
2023-02-08T17:47:48.203Z,30.95
2023-02-08T17:50:15.974Z,34.53
2023-02-08T17:52:43.035Z,35.03
2023-02-08T17:55:11.093Z,36.22
2023-02-08T17:57:39.449Z,26.15
2023-02-08T18:00:08.955Z,26.30
2023-02-08T18:02:36.122Z,24.70
2023-02-08T18:05:02.784Z,29.35
2023-02-08T18:07:29.431Z,26.67
2023-02-08T18:09:56.310Z,25.70
2023-02-08T18:12:22.981Z,28.63
2023-02-08T18:14:49.855Z,46.22
2023-02-08T18:17:16.778Z,53.38
2023-02-08T18:19:43.750Z,36.90
2023-02-08T18:22:10.520Z,31.23
2023-02-08T18:24:37.387Z,24.20
2023-02-08T18:27:04.044Z,22.33
2023-02-08T18:29:30.646Z,24.00
2023-02-08T18:31:57.466Z,22.52
2023-02-08T18:34:24.176Z,22.48
2023-02-08T18:36:50.845Z,23.85
2023-02-08T18:39:22.981Z,25.17
2023-02-08T18:41:52.235Z,30.10
2023-02-08T18:44:18.991Z,30.92
2023-02-08T18:46:47.766Z,27.27
2023-02-08T18:49:17.501Z,32.90
2023-02-08T18:51:44.926Z,32.10
2023-02-08T18:54:16.088Z,30.63
2023-02-08T18:56:43.799Z,31.92
2023-02-08T18:59:10.687Z,31.27
2023-02-08T19:01:37.736Z,28.90
2023-02-08T19:04:05.348Z,34.90
2023-02-08T19:06:32.485Z,30.20
2023-02-08T19:09:01.687Z,36.10
2023-02-08T19:11:34.104Z,30.73
2023-02-08T19:14:02.220Z,33.80
2023-02-08T19:16:34.477Z,32.22
2023-02-08T19:19:01.270Z,32.92
2023-02-08T19:21:28.188Z,33.85
2023-02-08T19:23:58.104Z,33.45
2023-02-08T19:26:25.836Z,33.40
2023-02-08T19:28:53.370Z,34.75
2023-02-08T19:31:21.251Z,43.17
2023-02-08T19:33:49.996Z,45.03
2023-02-08T19:36:22.508Z,49.85
2023-02-08T19:38:49.417Z,46.75
2023-02-08T19:41:21.551Z,46.72
2023-02-08T19:43:48.292Z,51.80
2023-02-08T19:46:16.286Z,46.53
2023-02-08T19:48:43.322Z,42.75
2023-02-08T19:51:10.056Z,37.40
2023-02-08T19:53:36.684Z,36.42
2023-02-08T19:56:05.237Z,36.67
2023-02-08T19:58:32.049Z,36.08
2023-02-08T20:00:58.805Z,38.20
2023-02-08T20:03:25.517Z,32.70
2023-02-08T20:05:53.524Z,37.90
2023-02-08T20:08:25.825Z,37.25
2023-02-08T20:10:53.948Z,46.72
2023-02-08T20:13:20.665Z,38.90
2023-02-08T20:15:47.395Z,40.22
2023-02-08T20:18:14.796Z,42.28
2023-02-08T20:20:41.901Z,40.67
2023-02-08T20:23:20.939Z,52.33
2023-02-08T20:25:48.904Z,50.65
2023-02-08T20:28:15.647Z,49.65
2023-02-08T20:30:42.450Z,44.72
2023-02-08T20:33:09.086Z,43.97
2023-02-08T20:35:36.352Z,47.05
2023-02-08T20:38:03.017Z,43.60
2023-02-08T20:40:29.822Z,47.15
2023-02-08T20:42:56.453Z,47.50
2023-02-08T20:45:23.279Z,43.05
2023-02-08T20:47:49.906Z,47.17
2023-02-08T20:50:19.608Z,41.63
2023-02-08T20:52:47.375Z,44.90
2023-02-08T20:55:14.034Z,39.85
2023-02-08T20:57:40.773Z,46.42
2023-02-08T21:00:07.925Z,53.55
2023-02-08T21:02:34.616Z,45.55
2023-02-08T21:05:01.304Z,53.53
2023-02-08T21:07:27.960Z,61.42
2023-02-08T21:09:54.578Z,61.15
2023-02-08T21:12:21.456Z,50.50
2023-02-08T21:14:48.324Z,49.78
2023-02-08T21:17:15.030Z,49.38
2023-02-08T21:19:41.952Z,48.55
2023-02-08T21:22:09.482Z,41.15
2023-02-08T21:24:36.110Z,42.90
2023-02-08T21:27:02.756Z,49.50
2023-02-08T21:29:29.466Z,44.00
2023-02-08T21:31:57.855Z,42.20
2023-02-08T21:34:24.636Z,42.70
2023-02-08T21:36:51.396Z,41.40
2023-02-08T21:39:18.400Z,40.53
2023-02-08T21:41:45.128Z,46.10
2023-02-08T21:44:11.808Z,49.90
2023-02-08T21:46:38.683Z,57.22
2023-02-08T21:49:23.787Z,77.95
2023-02-08T21:52:08.798Z,75.07
2023-02-08T21:54:41.760Z,68.97
2023-02-08T21:57:13.033Z,65.05
2023-02-08T21:59:39.658Z,59.85
2023-02-08T22:02:10.668Z,60.63
2023-02-08T22:04:37.422Z,55.78
2023-02-08T22:07:06.756Z,46.40
2023-02-08T22:09:33.378Z,45.30
2023-02-08T22:12:00.069Z,45.13
2023-02-08T22:14:26.730Z,52.55
2023-02-08T22:16:53.358Z,48.63
2023-02-08T22:19:20.028Z,49.53
2023-02-08T22:21:46.732Z,53.72
2023-02-08T22:24:13.367Z,49.42
2023-02-08T22:26:40.341Z,51.28
2023-02-08T22:29:06.972Z,52.88
2023-02-08T22:31:33.712Z,51.70
2023-02-08T22:34:00.675Z,54.53
2023-02-08T22:36:27.297Z,50.70
2023-02-08T22:38:54.105Z,47.47
2023-02-08T22:41:20.729Z,49.78
2023-02-08T22:43:48.432Z,58.35
2023-02-08T22:46:15.107Z,55.63
2023-02-08T22:48:41.780Z,54.00
2023-02-08T22:51:17.154Z,50.03
2023-02-08T22:53:44.392Z,58.28
2023-02-08T22:56:15.280Z,45.53
2023-02-08T22:58:42.214Z,49.75
2023-02-08T23:01:16.417Z,51.10
2023-02-08T23:03:43.378Z,50.60
2023-02-08T23:06:12.253Z,50.00
2023-02-08T23:08:39.118Z,49.58
2023-02-08T23:11:06.666Z,49.58
2023-02-08T23:13:33.540Z,50.33
2023-02-08T23:16:00.460Z,47.30
2023-02-08T23:18:27.166Z,44.88
2023-02-08T23:20:54.542Z,45.60
2023-02-08T23:23:21.578Z,52.70
2023-02-08T23:25:48.515Z,45.22
2023-02-08T23:28:15.470Z,54.03
2023-02-08T23:30:42.540Z,53.65
2023-02-08T23:33:09.664Z,57.78
2023-02-08T23:35:39.650Z,65.55
2023-02-08T23:38:06.563Z,62.13
2023-02-08T23:40:33.192Z,57.65
2023-02-08T23:42:59.903Z,53.22
2023-02-08T23:45:26.520Z,53.50
2023-02-08T23:47:53.217Z,56.35
2023-02-08T23:50:19.830Z,54.05
2023-02-08T23:52:46.464Z,55.25
2023-02-08T23:55:13.084Z,55.85
2023-02-08T23:57:39.707Z,45.42
